sensor_id;sensor_type;location;lat;lon;timestamp;pressure;altitude;pressure_sealevel;temperature;humidity
74230;BME280;62589;12.568;99.958;2022-11-20T00:02:15;100627.34;;;33.11;56.11
74230;BME280;62589;12.568;99.958;2022-11-20T00:04:41;100636.50;;;33.11;56.10
74230;BME280;62589;12.568;99.958;2022-11-20T00:07:08;100641.25;;;33.11;55.72
74230;BME280;62589;12.568;99.958;2022-11-20T00:09:35;100647.63;;;33.11;56.25
74230;BME280;62589;12.568;99.958;2022-11-20T00:12:01;100648.81;;;33.14;56.45
74230;BME280;62589;12.568;99.958;2022-11-20T00:14:29;100646.44;;;33.12;55.91
74230;BME280;62589;12.568;99.958;2022-11-20T00:16:55;100654.00;;;33.16;56.17
74230;BME280;62589;12.568;99.958;2022-11-20T00:19:22;100670.69;;;33.16;55.67
74230;BME280;62589;12.568;99.958;2022-11-20T00:21:49;100675.84;;;33.17;56.01
74230;BME280;62589;12.568;99.958;2022-11-20T00:24:17;100673.06;;;33.17;56.10
74230;BME280;62589;12.568;99.958;2022-11-20T00:26:44;100669.91;;;33.19;55.83
74230;BME280;62589;12.568;99.958;2022-11-20T00:29:11;100677.06;;;33.20;55.79
74230;BME280;62589;12.568;99.958;2022-11-20T00:31:37;100683.03;;;33.22;55.49
74230;BME280;62589;12.568;99.958;2022-11-20T00:34:04;100685.81;;;33.22;55.66
74230;BME280;62589;12.568;99.958;2022-11-20T00:36:33;100688.19;;;33.20;55.72
74230;BME280;62589;12.568;99.958;2022-11-20T00:39:00;100696.16;;;33.25;56.34
74230;BME280;62589;12.568;99.958;2022-11-20T00:41:28;100688.63;;;33.25;56.44
74230;BME280;62589;12.568;99.958;2022-11-20T00:43:56;100704.53;;;33.28;55.78
74230;BME280;62589;12.568;99.958;2022-11-20T00:46:25;100707.72;;;33.30;55.83
74230;BME280;62589;12.568;99.958;2022-11-20T00:48:52;100716.88;;;33.31;56.24
74230;BME280;62589;12.568;99.958;2022-11-20T00:51:22;100710.91;;;33.32;55.80
74230;BME280;62589;12.568;99.958;2022-11-20T00:53:49;100710.13;;;33.35;55.87
74230;BME280;62589;12.568;99.958;2022-11-20T00:56:17;100713.72;;;33.36;55.86
74230;BME280;62589;12.568;99.958;2022-11-20T00:58:46;100719.28;;;33.39;56.09
74230;BME280;62589;12.568;99.958;2022-11-20T01:01:22;100727.25;;;33.41;56.20
74230;BME280;62589;12.568;99.958;2022-11-20T01:03:53;100732.03;;;33.44;55.86
74230;BME280;62589;12.568;99.958;2022-11-20T01:06:26;100725.66;;;33.47;56.07
74230;BME280;62589;12.568;99.958;2022-11-20T01:08:55;100726.06;;;33.49;56.38
74230;BME280;62589;12.568;99.958;2022-11-20T01:11:25;100726.88;;;33.53;56.33
74230;BME280;62589;12.568;99.958;2022-11-20T01:13:53;100737.63;;;33.55;55.98
74230;BME280;62589;12.568;99.958;2022-11-20T01:16:27;100736.03;;;33.57;56.36
74230;BME280;62589;12.568;99.958;2022-11-20T01:18:56;100736.84;;;33.61;56.56
74230;BME280;62589;12.568;99.958;2022-11-20T01:21:28;100740.81;;;33.64;56.47
74230;BME280;62589;12.568;99.958;2022-11-20T01:23:55;100742.84;;;33.67;56.07
74230;BME280;62589;12.568;99.958;2022-11-20T01:26:29;100751.97;;;33.71;56.28
74230;BME280;62589;12.568;99.958;2022-11-20T01:28:56;100753.97;;;33.74;56.01
74230;BME280;62589;12.568;99.958;2022-11-20T01:31:29;100757.59;;;33.78;56.39
74230;BME280;62589;12.568;99.958;2022-11-20T01:33:59;100750.84;;;33.83;56.31
74230;BME280;62589;12.568;99.958;2022-11-20T01:36:28;100753.63;;;33.86;56.11
74230;BME280;62589;12.568;99.958;2022-11-20T01:38:57;100754.00;;;33.92;56.46
74230;BME280;62589;12.568;99.958;2022-11-20T01:41:25;100758.81;;;33.95;56.13
74230;BME280;62589;12.568;99.958;2022-11-20T01:44:05;100755.22;;;33.98;56.55
74230;BME280;62589;12.568;99.958;2022-11-20T01:46:33;100754.44;;;34.01;56.11
74230;BME280;62589;12.568;99.958;2022-11-20T01:49:36;100750.47;;;34.05;56.14
74230;BME280;62589;12.568;99.958;2022-11-20T01:51:59;100753.22;;;34.09;56.34
74230;BME280;62589;12.568;99.958;2022-11-20T01:57:14;100753.66;;;34.18;55.74
74230;BME280;62589;12.568;99.958;2022-11-20T01:59:47;100760.41;;;34.17;55.62
74230;BME280;62589;12.568;99.958;2022-11-20T02:02:15;100764.41;;;34.34;55.75
74230;BME280;62589;12.568;99.958;2022-11-20T02:04:41;100766.00;;;34.24;56.21
74230;BME280;62589;12.568;99.958;2022-11-20T02:07:08;100765.59;;;34.26;55.47
74230;BME280;62589;12.568;99.958;2022-11-20T02:09:35;100776.34;;;34.27;55.46
74230;BME280;62589;12.568;99.958;2022-11-20T02:12:03;100773.56;;;34.27;54.96
74230;BME280;62589;12.568;99.958;2022-11-20T02:14:30;100766.00;;;34.28;54.60
74230;BME280;62589;12.568;99.958;2022-11-20T02:16:57;100774.38;;;34.31;54.44
74230;BME280;62589;12.568;99.958;2022-11-20T02:19:29;100766.00;;;34.31;54.36
74230;BME280;62589;12.568;99.958;2022-11-20T02:22:06;100770.38;;;34.36;54.70
74230;BME280;62589;12.568;99.958;2022-11-20T02:24:34;100775.16;;;34.39;54.42
74230;BME280;62589;12.568;99.958;2022-11-20T02:27:10;100781.53;;;34.39;54.28
74230;BME280;62589;12.568;99.958;2022-11-20T02:30:00;100787.13;;;34.46;54.42
74230;BME280;62589;12.568;99.958;2022-11-20T02:32:31;100787.13;;;34.46;53.95
74230;BME280;62589;12.568;99.958;2022-11-20T02:35:06;100791.09;;;34.49;54.30
74230;BME280;62589;12.568;99.958;2022-11-20T02:37:35;100790.28;;;34.52;53.69
74230;BME280;62589;12.568;99.958;2022-11-20T02:40:03;100795.06;;;34.55;53.30
74230;BME280;62589;12.568;99.958;2022-11-20T02:42:30;100799.84;;;34.62;53.56
74230;BME280;62589;12.568;99.958;2022-11-20T02:44:57;100803.03;;;34.67;53.44
74230;BME280;62589;12.568;99.958;2022-11-20T02:47:24;100805.41;;;34.72;53.15
74230;BME280;62589;12.568;99.958;2022-11-20T02:49:50;100805.00;;;34.77;53.24
74230;BME280;62589;12.568;99.958;2022-11-20T02:52:17;100806.63;;;34.82;52.89
74230;BME280;62589;12.568;99.958;2022-11-20T02:54:44;100806.22;;;34.87;52.69
74230;BME280;62589;12.568;99.958;2022-11-20T02:57:11;100795.06;;;34.91;53.20
74230;BME280;62589;12.568;99.958;2022-11-20T02:59:37;100807.38;;;35.00;52.45
74230;BME280;62589;12.568;99.958;2022-11-20T03:02:04;100797.81;;;35.01;52.18
74230;BME280;62589;12.568;99.958;2022-11-20T03:04:31;100797.41;;;35.06;52.20
74230;BME280;62589;12.568;99.958;2022-11-20T03:06:58;100790.22;;;35.09;52.00
74230;BME280;62589;12.568;99.958;2022-11-20T03:09:24;100798.16;;;35.14;51.75
74230;BME280;62589;12.568;99.958;2022-11-20T03:11:51;100797.34;;;35.21;51.55
74230;BME280;62589;12.568;99.958;2022-11-20T03:14:18;100798.13;;;35.25;51.67
74230;BME280;62589;12.568;99.958;2022-11-20T03:16:45;100798.97;;;35.29;52.20
74230;BME280;62589;12.568;99.958;2022-11-20T03:19:12;100798.16;;;35.32;51.97
74230;BME280;62589;12.568;99.958;2022-11-20T03:21:39;100793.72;;;35.38;51.34
74230;BME280;62589;12.568;99.958;2022-11-20T03:24:06;100798.09;;;35.39;51.08
74230;BME280;62589;12.568;99.958;2022-11-20T03:26:33;100789.31;;;35.47;50.87
74230;BME280;62589;12.568;99.958;2022-11-20T03:29:02;100784.50;;;35.52;50.89
74230;BME280;62589;12.568;99.958;2022-11-20T03:31:33;100786.84;;;35.57;51.26
74230;BME280;62589;12.568;99.958;2022-11-20T03:34:01;100785.63;;;35.65;50.93
74230;BME280;62589;12.568;99.958;2022-11-20T03:36:30;100784.00;;;35.67;50.88
74230;BME280;62589;12.568;99.958;2022-11-20T03:38:57;100782.00;;;35.71;50.08
74230;BME280;62589;12.568;99.958;2022-11-20T03:41:25;100785.97;;;35.74;49.95
74230;BME280;62589;12.568;99.958;2022-11-20T03:43:57;100772.38;;;35.76;49.13
74230;BME280;62589;12.568;99.958;2022-11-20T03:46:25;100768.00;;;35.78;48.69
74230;BME280;62589;12.568;99.958;2022-11-20T03:48:52;100761.22;;;35.79;48.56
74230;BME280;62589;12.568;99.958;2022-11-20T03:51:23;100754.81;;;35.79;48.62
74230;BME280;62589;12.568;99.958;2022-11-20T03:53:53;100750.00;;;35.87;48.75
74230;BME280;62589;12.568;99.958;2022-11-20T03:56:23;100746.41;;;35.86;48.34
74230;BME280;62589;12.568;99.958;2022-11-20T03:58:50;100748.78;;;35.91;48.16
74230;BME280;62589;12.568;99.958;2022-11-20T04:01:23;100745.50;;;35.96;48.48
74230;BME280;62589;12.568;99.958;2022-11-20T04:03:53;100746.69;;;36.02;48.62
74230;BME280;62589;12.568;99.958;2022-11-20T04:06:23;100734.66;;;36.09;49.03
74230;BME280;62589;12.568;99.958;2022-11-20T04:08:50;100729.03;;;36.12;48.32
74230;BME280;62589;12.568;99.958;2022-11-20T04:11:21;100727.78;;;36.17;48.02
74230;BME280;62589;12.568;99.958;2022-11-20T04:13:50;100728.94;;;36.23;47.66
74230;BME280;62589;12.568;99.958;2022-11-20T04:16:18;100720.13;;;36.28;47.59
74230;BME280;62589;12.568;99.958;2022-11-20T04:18:44;100719.69;;;36.33;47.72
74230;BME280;62589;12.568;99.958;2022-11-20T04:21:12;100713.28;;;36.36;47.28
74230;BME280;62589;12.568;99.958;2022-11-20T04:23:39;100714.88;;;36.37;47.07
74230;BME280;62589;12.568;99.958;2022-11-20T04:26:08;100711.59;;;36.42;46.51
74230;BME280;62589;12.568;99.958;2022-11-20T04:28:35;100712.81;;;36.41;46.22
74230;BME280;62589;12.568;99.958;2022-11-20T04:31:13;100707.22;;;36.41;46.19
74230;BME280;62589;12.568;99.958;2022-11-20T04:33:41;100700.81;;;36.44;45.74
74230;BME280;62589;12.568;99.958;2022-11-20T04:36:12;100697.63;;;36.42;45.47
74230;BME280;62589;12.568;99.958;2022-11-20T04:38:40;100703.16;;;36.49;45.58
74230;BME280;62589;12.568;99.958;2022-11-20T04:41:08;100692.34;;;36.52;45.31
74230;BME280;62589;12.568;99.958;2022-11-20T04:43:36;100689.53;;;36.55;45.25
74230;BME280;62589;12.568;99.958;2022-11-20T04:46:02;100689.53;;;36.55;44.79
74230;BME280;62589;12.568;99.958;2022-11-20T04:48:29;100688.72;;;36.55;45.15
74230;BME280;62589;12.568;99.958;2022-11-20T04:50:56;100679.16;;;36.52;44.48
74230;BME280;62589;12.568;99.958;2022-11-20T04:53:23;100683.13;;;36.55;44.67
74230;BME280;62589;12.568;99.958;2022-11-20T04:55:49;100677.06;;;36.60;45.25
74230;BME280;62589;12.568;99.958;2022-11-20T04:58:16;100667.94;;;36.56;45.47
74230;BME280;62589;12.568;99.958;2022-11-20T05:00:43;100672.69;;;36.59;44.87
74230;BME280;62589;12.568;99.958;2022-11-20T05:03:12;100665.06;;;36.59;43.96
74230;BME280;62589;12.568;99.958;2022-11-20T05:05:38;100660.28;;;36.60;43.74
74230;BME280;62589;12.568;99.958;2022-11-20T05:08:05;100646.28;;;36.60;43.71
74230;BME280;62589;12.568;99.958;2022-11-20T05:10:32;100648.69;;;36.61;43.90
74230;BME280;62589;12.568;99.958;2022-11-20T05:12:58;100648.25;;;36.63;44.33
74230;BME280;62589;12.568;99.958;2022-11-20T05:15:24;100637.03;;;36.66;44.26
74230;BME280;62589;12.568;99.958;2022-11-20T05:17:52;100632.22;;;36.67;44.29
74230;BME280;62589;12.568;99.958;2022-11-20T05:20:19;100624.22;;;36.69;43.67
74230;BME280;62589;12.568;99.958;2022-11-20T05:22:45;100629.41;;;36.70;43.71
74230;BME280;62589;12.568;99.958;2022-11-20T05:25:12;100625.38;;;36.71;43.96
74230;BME280;62589;12.568;99.958;2022-11-20T05:27:39;100623.78;;;36.74;44.45
74230;BME280;62589;12.568;99.958;2022-11-20T05:30:06;100625.38;;;36.75;44.76
74230;BME280;62589;12.568;99.958;2022-11-20T05:32:32;100621.41;;;36.72;44.95
74230;BME280;62589;12.568;99.958;2022-11-20T05:34:59;100625.34;;;36.78;44.67
74230;BME280;62589;12.568;99.958;2022-11-20T05:37:25;100615.34;;;36.77;44.93
74230;BME280;62589;12.568;99.958;2022-11-20T05:39:52;100614.16;;;36.78;45.35
74230;BME280;62589;12.568;99.958;2022-11-20T05:42:18;100615.28;;;36.81;44.73
74230;BME280;62589;12.568;99.958;2022-11-20T05:44:57;100604.50;;;36.79;44.50
74230;BME280;62589;12.568;99.958;2022-11-20T05:47:24;100613.28;;;36.81;44.10
74230;BME280;62589;12.568;99.958;2022-11-20T05:49:51;100596.50;;;36.81;44.07
74230;BME280;62589;12.568;99.958;2022-11-20T05:52:17;100600.03;;;36.86;44.32
74230;BME280;62589;12.568;99.958;2022-11-20T05:54:44;100592.44;;;36.86;44.08
74230;BME280;62589;12.568;99.958;2022-11-20T05:57:10;100596.03;;;36.87;43.66
74230;BME280;62589;12.568;99.958;2022-11-20T05:59:37;100584.44;;;36.88;43.86
74230;BME280;62589;12.568;99.958;2022-11-20T06:02:03;100589.22;;;36.88;43.83
74230;BME280;62589;12.568;99.958;2022-11-20T06:04:30;100574.78;;;36.93;43.73
74230;BME280;62589;12.568;99.958;2022-11-20T06:06:56;100568.34;;;36.96;43.60
74230;BME280;62589;12.568;99.958;2022-11-20T06:09:23;100570.22;;;37.02;43.79
74230;BME280;62589;12.568;99.958;2022-11-20T06:11:49;100560.19;;;37.05;43.61
74230;BME280;62589;12.568;99.958;2022-11-20T06:14:19;100560.94;;;37.09;43.53
74230;BME280;62589;12.568;99.958;2022-11-20T06:16:46;100552.84;;;37.14;43.47
74230;BME280;62589;12.568;99.958;2022-11-20T06:19:13;100542.44;;;37.19;43.88
74230;BME280;62589;12.568;99.958;2022-11-20T06:21:41;100538.34;;;37.23;44.13
74230;BME280;62589;12.568;99.958;2022-11-20T06:24:09;100533.47;;;37.27;44.89
74230;BME280;62589;12.568;99.958;2022-11-20T06:26:37;100524.59;;;37.32;45.77
74230;BME280;62589;12.568;99.958;2022-11-20T06:29:03;100524.56;;;37.36;45.83
74230;BME280;62589;12.568;99.958;2022-11-20T06:31:30;100527.22;;;37.43;45.82
74230;BME280;62589;12.568;99.958;2022-11-20T06:34:01;100515.53;;;37.48;46.07
74230;BME280;62589;12.568;99.958;2022-11-20T06:36:28;100515.41;;;37.55;46.31
74230;BME280;62589;12.568;99.958;2022-11-20T06:38:55;100506.88;;;37.62;46.74
74230;BME280;62589;12.568;99.958;2022-11-20T06:41:22;100494.09;;;37.61;46.97
74230;BME280;62589;12.568;99.958;2022-11-20T06:43:49;100492.81;;;37.66;46.57
74230;BME280;62589;12.568;99.958;2022-11-20T06:46:17;100488.81;;;37.67;46.57
74230;BME280;62589;12.568;99.958;2022-11-20T06:48:45;100490.81;;;37.66;46.78
74230;BME280;62589;12.568;99.958;2022-11-20T06:51:13;100483.22;;;37.63;46.94
74230;BME280;62589;12.568;99.958;2022-11-20T06:53:39;100466.09;;;37.61;47.22
74230;BME280;62589;12.568;99.958;2022-11-20T06:56:07;100461.34;;;37.58;47.71
74230;BME280;62589;12.568;99.958;2022-11-20T06:58:35;100445.75;;;37.57;48.09
74230;BME280;62589;12.568;99.958;2022-11-20T07:01:05;100452.22;;;37.54;48.14
74230;BME280;62589;12.568;99.958;2022-11-20T07:03:32;100446.59;;;37.54;48.31
74230;BME280;62589;12.568;99.958;2022-11-20T07:06:01;100442.22;;;37.53;49.00
74230;BME280;62589;12.568;99.958;2022-11-20T07:08:28;100447.41;;;37.55;48.68
74230;BME280;62589;12.568;99.958;2022-11-20T07:10:59;100439.84;;;37.52;49.18
74230;BME280;62589;12.568;99.958;2022-11-20T07:13:27;100440.28;;;37.50;49.11
74230;BME280;62589;12.568;99.958;2022-11-20T07:15:54;100424.25;;;37.50;49.28
74230;BME280;62589;12.568;99.958;2022-11-20T07:18:21;100425.13;;;37.47;49.55
74230;BME280;62589;12.568;99.958;2022-11-20T07:20:48;100423.09;;;37.48;49.16
74230;BME280;62589;12.568;99.958;2022-11-20T07:23:15;100413.50;;;37.49;48.85
74230;BME280;62589;12.568;99.958;2022-11-20T07:25:41;100417.50;;;37.48;49.45
74230;BME280;62589;12.568;99.958;2022-11-20T07:28:08;100399.91;;;37.47;49.48
74230;BME280;62589;12.568;99.958;2022-11-20T07:30:36;100407.94;;;37.45;49.28
74230;BME280;62589;12.568;99.958;2022-11-20T07:33:04;100411.53;;;37.46;48.70
74230;BME280;62589;12.568;99.958;2022-11-20T07:35:30;100392.47;;;37.41;49.07
74230;BME280;62589;12.568;99.958;2022-11-20T07:37:57;100402.88;;;37.40;48.81
74230;BME280;62589;12.568;99.958;2022-11-20T07:40:24;100392.88;;;37.39;48.89
74230;BME280;62589;12.568;99.958;2022-11-20T07:42:54;100402.50;;;37.38;48.82
74230;BME280;62589;12.568;99.958;2022-11-20T07:45:24;100404.94;;;37.36;48.09
74230;BME280;62589;12.568;99.958;2022-11-20T07:47:51;100402.94;;;37.37;48.32
74230;BME280;62589;12.568;99.958;2022-11-20T07:50:19;100396.97;;;37.35;48.44
74230;BME280;62589;12.568;99.958;2022-11-20T07:52:46;100398.56;;;37.36;47.61
74230;BME280;62589;12.568;99.958;2022-11-20T07:55:13;100390.56;;;37.34;47.18
74230;BME280;62589;12.568;99.958;2022-11-20T07:57:40;100394.97;;;37.35;47.07
74230;BME280;62589;12.568;99.958;2022-11-20T08:00:08;100387.34;;;37.36;46.49
74230;BME280;62589;12.568;99.958;2022-11-20T08:02:39;100392.94;;;37.36;45.90
74230;BME280;62589;12.568;99.958;2022-11-20T08:05:07;100395.75;;;37.36;46.03
74230;BME280;62589;12.568;99.958;2022-11-20T08:07:38;100381.38;;;37.34;46.06
74230;BME280;62589;12.568;99.958;2022-11-20T08:10:06;100380.59;;;37.33;45.71
74230;BME280;62589;12.568;99.958;2022-11-20T08:12:33;100375.84;;;37.30;45.69
74230;BME280;62589;12.568;99.958;2022-11-20T08:15:11;100383.09;;;37.28;45.16
74230;BME280;62589;12.568;99.958;2022-11-20T08:17:38;100369.16;;;37.24;45.37
74230;BME280;62589;12.568;99.958;2022-11-20T08:20:04;100371.25;;;37.20;44.68
74230;BME280;62589;12.568;99.958;2022-11-20T08:22:31;100367.28;;;37.17;44.63
74230;BME280;62589;12.568;99.958;2022-11-20T08:24:57;100366.16;;;37.11;44.64
74230;BME280;62589;12.568;99.958;2022-11-20T08:27:24;100367.03;;;37.08;44.70
74230;BME280;62589;12.568;99.958;2022-11-20T08:29:50;100367.50;;;37.03;44.27
74230;BME280;62589;12.568;99.958;2022-11-20T08:32:16;100368.03;;;36.98;44.28
74230;BME280;62589;12.568;99.958;2022-11-20T08:34:43;100366.88;;;36.96;44.33
74230;BME280;62589;12.568;99.958;2022-11-20T08:37:09;100366.06;;;36.95;44.94
74230;BME280;62589;12.568;99.958;2022-11-20T08:39:36;100363.69;;;36.94;45.25
74230;BME280;62589;12.568;99.958;2022-11-20T08:42:06;100363.75;;;36.90;45.01
74230;BME280;62589;12.568;99.958;2022-11-20T08:44:32;100356.56;;;36.89;45.27
74230;BME280;62589;12.568;99.958;2022-11-20T08:47:00;100355.84;;;36.85;44.85
74230;BME280;62589;12.568;99.958;2022-11-20T08:49:26;100351.88;;;36.82;44.96
74230;BME280;62589;12.568;99.958;2022-11-20T08:51:53;100346.34;;;36.79;44.59
74230;BME280;62589;12.568;99.958;2022-11-20T08:54:20;100352.41;;;36.77;44.62
74230;BME280;62589;12.568;99.958;2022-11-20T08:56:48;100353.66;;;36.73;44.82
74230;BME280;62589;12.568;99.958;2022-11-20T08:59:15;100350.47;;;36.71;44.77
74230;BME280;62589;12.568;99.958;2022-11-20T09:01:41;100350.09;;;36.69;45.05
74230;BME280;62589;12.568;99.958;2022-11-20T09:04:07;100352.16;;;36.65;44.79
74230;BME280;62589;12.568;99.958;2022-11-20T09:06:34;100356.97;;;36.64;45.09
74230;BME280;62589;12.568;99.958;2022-11-20T09:09:00;100357.00;;;36.61;45.40
74230;BME280;62589;12.568;99.958;2022-11-20T09:11:27;100357.44;;;36.59;44.95
74230;BME280;62589;12.568;99.958;2022-11-20T09:13:53;100355.50;;;36.56;45.69
74230;BME280;62589;12.568;99.958;2022-11-20T09:16:19;100359.53;;;36.55;45.36
74230;BME280;62589;12.568;99.958;2022-11-20T09:18:46;100351.56;;;36.54;45.04
74230;BME280;62589;12.568;99.958;2022-11-20T09:21:13;100350.41;;;36.51;45.47
74230;BME280;62589;12.568;99.958;2022-11-20T09:23:40;100347.22;;;36.49;45.22
74230;BME280;62589;12.568;99.958;2022-11-20T09:26:09;100351.66;;;36.46;45.54
74230;BME280;62589;12.568;99.958;2022-11-20T09:28:36;100350.06;;;36.45;45.25
74230;BME280;62589;12.568;99.958;2022-11-20T09:31:17;100355.72;;;36.42;45.46
74230;BME280;62589;12.568;99.958;2022-11-20T09:33:46;100361.69;;;36.44;45.53
74230;BME280;62589;12.568;99.958;2022-11-20T09:36:12;100366.91;;;36.42;46.04
74230;BME280;62589;12.568;99.958;2022-11-20T09:38:38;100366.53;;;36.40;45.86
74230;BME280;62589;12.568;99.958;2022-11-20T09:47:06;100368.53;;;36.39;46.20
74230;BME280;62589;12.568;99.958;2022-11-20T09:50:10;100372.91;;;36.40;46.46
74230;BME280;62589;12.568;99.958;2022-11-20T09:55:32;100380.59;;;36.36;46.45
74230;BME280;62589;12.568;99.958;2022-11-20T09:58:00;100380.22;;;36.34;46.19
74230;BME280;62589;12.568;99.958;2022-11-20T10:00:28;100387.00;;;36.33;46.82
74230;BME280;62589;12.568;99.958;2022-11-20T10:03:02;100384.63;;;36.32;47.21
74230;BME280;62589;12.568;99.958;2022-11-20T10:05:52;100383.81;;;36.35;47.03
74230;BME280;62589;12.568;99.958;2022-11-20T10:08:24;100384.69;;;36.28;46.75
74230;BME280;62589;12.568;99.958;2022-11-20T10:11:19;100377.47;;;36.31;46.92
74230;BME280;62589;12.568;99.958;2022-11-20T10:14:21;100389.50;;;36.28;47.43
74230;BME280;62589;12.568;99.958;2022-11-20T10:17:08;100390.31;;;36.25;47.41
74230;BME280;62589;12.568;99.958;2022-11-20T10:19:53;100397.91;;;36.24;47.28
74230;BME280;62589;12.568;99.958;2022-11-20T10:22:27;100395.41;;;36.33;47.03
74230;BME280;62589;12.568;99.958;2022-11-20T10:25:13;100395.97;;;36.17;47.42
74230;BME280;62589;12.568;99.958;2022-11-20T10:30:40;100406.84;;;36.12;47.24
74230;BME280;62589;12.568;99.958;2022-11-20T10:33:18;100405.69;;;36.09;47.08
74230;BME280;62589;12.568;99.958;2022-11-20T10:35:55;100407.31;;;36.07;47.13
74230;BME280;62589;12.568;99.958;2022-11-20T10:38:40;100415.28;;;36.08;47.11
74230;BME280;62589;12.568;99.958;2022-11-20T10:41:20;100408.94;;;36.04;47.30
74230;BME280;62589;12.568;99.958;2022-11-20T10:44:08;100420.13;;;36.04;47.40
74230;BME280;62589;12.568;99.958;2022-11-20T10:46:53;100414.91;;;36.06;47.80
74230;BME280;62589;12.568;99.958;2022-11-20T10:49:20;100416.16;;;36.02;47.91
74230;BME280;62589;12.568;99.958;2022-11-20T10:58:04;100412.97;;;36.00;48.43
74230;BME280;62589;12.568;99.958;2022-11-20T11:00:36;100420.25;;;35.94;48.65
74230;BME280;62589;12.568;99.958;2022-11-20T11:03:02;100431.06;;;35.92;49.01
74230;BME280;62589;12.568;99.958;2022-11-20T11:05:50;100437.03;;;35.94;49.30
74230;BME280;62589;12.568;99.958;2022-11-20T11:08:19;100440.69;;;35.87;49.50
74230;BME280;62589;12.568;99.958;2022-11-20T11:11:00;100435.94;;;35.84;49.55
74230;BME280;62589;12.568;99.958;2022-11-20T11:13:29;100429.97;;;35.82;49.43
74230;BME280;62589;12.568;99.958;2022-11-20T11:15:57;100441.56;;;35.80;49.67
74230;BME280;62589;12.568;99.958;2022-11-20T11:18:31;100446.75;;;35.78;49.63
74230;BME280;62589;12.568;99.958;2022-11-20T11:21:01;100451.56;;;35.78;49.66
74230;BME280;62589;12.568;99.958;2022-11-20T11:23:41;100453.13;;;35.79;50.04
74230;BME280;62589;12.568;99.958;2022-11-20T11:26:24;100457.13;;;35.78;50.28
74230;BME280;62589;12.568;99.958;2022-11-20T11:28:59;100459.59;;;35.72;50.61
74230;BME280;62589;12.568;99.958;2022-11-20T11:31:28;100463.97;;;35.73;50.38
74230;BME280;62589;12.568;99.958;2022-11-20T11:34:05;100467.97;;;35.72;50.76
74230;BME280;62589;12.568;99.958;2022-11-20T11:36:34;100479.59;;;35.67;50.69
74230;BME280;62589;12.568;99.958;2022-11-20T11:39:02;100489.16;;;35.66;50.61
74230;BME280;62589;12.568;99.958;2022-11-20T11:41:32;100487.59;;;35.65;50.77
74230;BME280;62589;12.568;99.958;2022-11-20T11:44:15;100497.53;;;35.66;50.71
74230;BME280;62589;12.568;99.958;2022-11-20T11:46:55;100499.19;;;35.60;51.17
74230;BME280;62589;12.568;99.958;2022-11-20T11:49:22;100501.19;;;35.60;51.42
74230;BME280;62589;12.568;99.958;2022-11-20T11:54:58;100507.22;;;35.55;51.58
74230;BME280;62589;12.568;99.958;2022-11-20T11:57:47;100508.44;;;35.54;51.27
74230;BME280;62589;12.568;99.958;2022-11-20T12:00:19;100513.69;;;35.48;51.12
74230;BME280;62589;12.568;99.958;2022-11-20T12:03:09;100511.69;;;35.48;50.91
74230;BME280;62589;12.568;99.958;2022-11-20T12:05:44;100517.69;;;35.47;51.03
74230;BME280;62589;12.568;99.958;2022-11-20T12:08:42;100522.44;;;35.50;50.90
74230;BME280;62589;12.568;99.958;2022-11-20T12:16:57;100531.25;;;35.45;50.83
74230;BME280;62589;12.568;99.958;2022-11-20T12:19:24;100532.88;;;35.42;50.72
74230;BME280;62589;12.568;99.958;2022-11-20T12:28:04;100546.03;;;35.42;51.38
74230;BME280;62589;12.568;99.958;2022-11-20T12:39:33;100568.78;;;35.37;51.58
74230;BME280;62589;12.568;99.958;2022-11-20T12:48:32;100572.41;;;35.34;52.06
74230;BME280;62589;12.568;99.958;2022-11-20T12:51:25;100570.84;;;35.33;51.60
74230;BME280;62589;12.568;99.958;2022-11-20T12:54:33;100582.03;;;35.29;51.56
74230;BME280;62589;12.568;99.958;2022-11-20T12:57:13;100582.84;;;35.23;51.46
74230;BME280;62589;12.568;99.958;2022-11-20T13:08:36;100583.72;;;35.12;51.02
74230;BME280;62589;12.568;99.958;2022-11-20T13:19:36;100618.03;;;35.02;50.37
74230;BME280;62589;12.568;99.958;2022-11-20T13:22:02;100613.66;;;35.01;50.45
74230;BME280;62589;12.568;99.958;2022-11-20T13:24:32;100623.66;;;34.95;50.30
74230;BME280;62589;12.568;99.958;2022-11-20T13:27:18;100628.44;;;34.98;50.30
74230;BME280;62589;12.568;99.958;2022-11-20T13:29:58;100630.44;;;34.94;50.28
74230;BME280;62589;12.568;99.958;2022-11-20T13:32:28;100644.00;;;34.92;50.98
74230;BME280;62589;12.568;99.958;2022-11-20T13:35:03;100641.19;;;34.92;50.78
74230;BME280;62589;12.568;99.958;2022-11-20T13:37:36;100639.63;;;34.91;50.92
74230;BME280;62589;12.568;99.958;2022-11-20T13:43:04;100652.34;;;34.96;50.78
74230;BME280;62589;12.568;99.958;2022-11-20T13:45:33;100651.16;;;34.93;50.98
74230;BME280;62589;12.568;99.958;2022-11-20T13:51:41;100658.41;;;34.69;51.84
74230;BME280;62589;12.568;99.958;2022-11-20T14:00:13;100654.81;;;34.83;50.91
74230;BME280;62589;12.568;99.958;2022-11-20T14:02:41;100654.41;;;34.85;51.02
74230;BME280;62589;12.568;99.958;2022-11-20T14:05:22;100647.63;;;34.82;50.91
74230;BME280;62589;12.568;99.958;2022-11-20T14:07:50;100646.03;;;34.81;50.82
74230;BME280;62589;12.568;99.958;2022-11-20T14:10:27;100647.22;;;34.84;50.79
74230;BME280;62589;12.568;99.958;2022-11-20T14:12:53;100644.06;;;34.82;50.39
74230;BME280;62589;12.568;99.958;2022-11-20T14:15:32;100647.63;;;34.82;50.19
74230;BME280;62589;12.568;99.958;2022-11-20T14:18:11;100655.63;;;34.80;50.27